Time;durP1;ratioP1;P1;durP2;ratioP2;P2;SDS_P1;SDS_P2;PMS_P1;PMS_P2;Temp;Humidity;BMP_temperature;BMP_pressure;BME280_temperature;BME280_humidity;BME280_pressure;Samples;Min_cycle;Max_cycle;Signal;HPM_P1;HPM_P2
2020/12/19 00:01:55;;;;;;;13.95;9.40;;;3.60;99.90;;;;;;5081035;28;20036;-80
2020/12/19 00:04:21;;;;;;;13.38;9.23;;;3.60;99.90;;;;;;5082236;28;20054;-75
2020/12/19 00:06:46;;;;;;;13.88;8.77;;;3.60;99.90;;;;;;5082661;28;20031;-80
2020/12/19 00:09:12;;;;;;;13.98;9.05;;;3.60;99.90;;;;;;5065229;28;20020;-79
2020/12/19 00:11:43;;;;;;;13.60;8.95;;;3.50;99.90;;;;;;5079190;28;20116;-79
2020/12/19 00:14:08;;;;;;;;;;;3.50;99.90;;;;;;5081809;28;20029;-79
2020/12/19 00:16:34;;;;;;;13.90;9.05;;;3.50;99.90;;;;;;5081045;28;20414;-79
2020/12/19 00:19:00;;;;;;;14.57;8.98;;;3.50;99.90;;;;;;5072609;28;20067;-76
2020/12/19 00:21:33;;;;;;;12.77;8.73;;;3.50;99.90;;;;;;5082761;28;20044;-78
2020/12/19 00:23:59;;;;;;;11.00;8.02;;;3.50;99.90;;;;;;5084897;28;20053;-78
2020/12/19 00:26:40;;;;;;;13.35;8.27;;;3.60;99.90;;;;;;5070301;28;20477;-78
2020/12/19 00:29:07;;;;;;;15.15;8.40;;;3.50;99.90;;;;;;5085101;28;20029;-77
2020/12/19 00:31:34;;;;;;;11.63;8.40;;;3.50;99.90;;;;;;5086316;28;20430;-78
2020/12/19 00:34:00;;;;;;;12.90;8.27;;;3.50;99.90;;;;;;5084827;28;20035;-76
2020/12/19 00:36:26;;;;;;;14.07;7.65;;;3.50;99.90;;;;;;5079486;28;20115;-79
2020/12/19 00:38:52;;;;;;;12.13;7.85;;;3.60;99.90;;;;;;5084183;28;20497;-78
2020/12/19 00:41:23;;;;;;;9.60;6.97;;;3.60;99.90;;;;;;5082675;28;20112;-73
2020/12/19 00:43:49;;;;;;;9.98;6.97;;;3.70;99.90;;;;;;5085357;28;20099;-76
2020/12/19 00:46:18;;;;;;;11.18;7.90;;;3.70;99.90;;;;;;5083742;28;20047;-77
2020/12/19 00:48:44;;;;;;;14.82;7.80;;;3.70;99.90;;;;;;5067454;28;20112;-78
2020/12/19 00:51:15;;;;;;;10.60;6.90;;;3.60;99.90;;;;;;5085405;28;20028;-78
2020/12/19 00:53:41;;;;;;;12.77;6.95;;;3.50;99.90;;;;;;5082534;28;20059;-78
2020/12/19 00:56:22;;;;;;;13.32;7.43;;;3.60;99.90;;;;;;5085087;28;20073;-74
2020/12/19 00:58:48;;;;;;;;;;;3.60;99.90;;;;;;5083550;28;20089;-79
2020/12/19 01:01:15;;;;;;;10.48;6.95;;;3.60;99.90;;;;;;5086636;28;19908;-75
2020/12/19 01:03:41;;;;;;;9.38;7.20;;;3.50;99.90;;;;;;5098342;28;20052;-78
2020/12/19 01:06:07;;;;;;;10.80;7.13;;;3.50;99.90;;;;;;5101408;28;20028;-78
2020/12/19 01:08:33;;;;;;;11.73;7.50;;;3.50;99.90;;;;;;5093469;28;20032;-79
2020/12/19 01:10:59;;;;;;;12.75;7.85;;;3.40;99.90;;;;;;5075218;28;20085;-79
2020/12/19 01:13:25;;;;;;;13.05;7.60;;;3.30;99.90;;;;;;5092365;28;20097;-78
2020/12/19 01:15:51;;;;;;;11.98;6.95;;;3.30;99.90;;;;;;5093511;28;20115;-79
2020/12/19 01:18:18;;;;;;;14.13;7.80;;;3.30;99.90;;;;;;5092861;28;20024;-79
2020/12/19 01:20:43;;;;;;;9.48;7.13;;;3.30;99.90;;;;;;5092966;28;20022;-78
2020/12/19 01:23:09;;;;;;;11.15;7.43;;;3.20;99.90;;;;;;5092414;28;20111;-79
2020/12/19 01:25:35;;;;;;;12.32;7.63;;;3.20;99.90;;;;;;5091507;28;20036;-79
2020/12/19 01:28:01;;;;;;;13.02;7.47;;;3.10;99.90;;;;;;5092304;28;20461;-79
2020/12/19 01:30:26;;;;;;;10.02;6.95;;;3.10;99.90;;;;;;5091584;28;20038;-79
2020/12/19 01:32:52;;;;;;;10.15;7.55;;;3.00;99.90;;;;;;5092218;28;20032;-79
2020/12/19 01:35:18;;;;;;;14.65;7.93;;;3.00;99.90;;;;;;5091924;28;20024;-73
2020/12/19 01:37:43;;;;;;;12.98;7.88;;;2.90;99.90;;;;;;5091381;28;20429;-78
2020/12/19 01:40:09;;;;;;;11.80;7.93;;;2.90;99.90;;;;;;5092036;28;20520;-79
2020/12/19 01:42:36;;;;;;;13.93;8.43;;;2.90;99.90;;;;;;5091453;28;20126;-78
2020/12/19 01:45:03;;;;;;;12.55;8.00;;;2.80;99.90;;;;;;5098428;28;20048;-75
2020/12/19 01:47:28;;;;;;;11.30;7.75;;;2.90;99.90;;;;;;5092032;28;20093;-80
2020/12/19 01:49:54;;;;;;;13.25;8.00;;;2.90;99.90;;;;;;5092104;28;20452;-80
2020/12/19 01:52:22;;;;;;;12.50;8.45;;;2.80;99.90;;;;;;5092027;28;20139;-74
2020/12/19 01:54:49;;;;;;;13.07;7.53;;;2.80;99.90;;;;;;5091740;28;20028;-79
2020/12/19 01:57:18;;;;;;;14.75;7.78;;;2.80;99.90;;;;;;5092608;28;20028;-79
2020/12/19 01:59:43;;;;;;;11.77;8.00;;;2.90;99.90;;;;;;5092202;28;20020;-79
2020/12/19 02:02:10;;;;;;;12.45;7.70;;;2.90;99.90;;;;;;5092905;28;20032;-79
2020/12/19 02:04:36;;;;;;;14.20;8.23;;;2.80;99.90;;;;;;5091847;28;20032;-79
2020/12/19 02:07:05;;;;;;;12.02;7.93;;;2.80;99.90;;;;;;5092430;28;20123;-78
2020/12/19 02:09:36;;;;;;;12.73;7.53;;;2.80;99.90;;;;;;5091507;28;20029;-78
2020/12/19 02:12:02;;;;;;;9.98;6.80;;;2.70;99.90;;;;;;5092329;28;20043;-75
2020/12/19 02:14:31;;;;;;;13.25;7.10;;;2.70;99.90;;;;;;5091250;28;20043;-78
2020/12/19 02:17:15;;;;;;;10.65;8.10;;;2.60;99.90;;;;;;5092057;28;20064;-78
2020/12/19 02:19:41;;;;;;;12.48;7.30;;;2.60;99.90;;;;;;5091289;28;20039;-78
2020/12/19 02:22:08;;;;;;;11.73;8.30;;;2.60;99.90;;;;;;5092000;28;20066;-79
2020/12/19 02:24:34;;;;;;;14.25;8.48;;;2.50;99.90;;;;;;5090970;28;20020;-78
2020/12/19 02:27:00;;;;;;;14.93;8.73;;;2.50;99.90;;;;;;5091869;28;20488;-80
2020/12/19 02:29:30;;;;;;;12.85;8.38;;;2.50;99.90;;;;;;5091176;28;20512;-79
2020/12/19 02:31:58;;;;;;;13.65;7.82;;;2.50;99.90;;;;;;5104080;28;20032;-79
2020/12/19 02:34:24;;;;;;;12.20;7.72;;;2.50;99.90;;;;;;5097716;28;20107;-76
2020/12/19 02:36:50;;;;;;;11.73;7.88;;;2.50;99.90;;;;;;5091735;28;20099;-78
2020/12/19 02:39:16;;;;;;;12.18;7.53;;;2.50;99.90;;;;;;5091772;28;20477;-79
2020/12/19 02:41:43;;;;;;;13.40;8.00;;;2.50;99.90;;;;;;5090406;28;20066;-79
2020/12/19 02:44:12;;;;;;;13.63;8.05;;;2.40;99.90;;;;;;5091767;28;20374;-79
2020/12/19 02:46:38;;;;;;;13.48;8.75;;;2.40;99.90;;;;;;5091036;28;20036;-79
2020/12/19 02:49:04;;;;;;;14.07;8.52;;;2.40;99.90;;;;;;5091317;28;20469;-79
2020/12/19 02:51:30;;;;;;;14.00;7.72;;;2.40;99.90;;;;;;5091162;28;20044;-79
2020/12/19 02:53:55;;;;;;;13.57;8.30;;;2.40;99.90;;;;;;5091002;28;20032;-79
2020/12/19 02:56:21;;;;;;;12.05;7.72;;;2.40;99.90;;;;;;5090961;28;20081;-73
2020/12/19 02:58:47;;;;;;;16.77;8.43;;;2.40;99.90;;;;;;5091387;28;20035;-80
2020/12/19 03:01:12;;;;;;;12.93;8.23;;;2.40;99.90;;;;;;5091220;28;20035;-79
2020/12/19 03:03:38;;;;;;;12.75;8.07;;;2.40;99.90;;;;;;5090674;28;20775;-79
2020/12/19 03:06:04;;;;;;;14.43;8.55;;;2.40;99.90;;;;;;5086641;28;20071;-78
2020/12/19 03:08:29;;;;;;;11.38;7.75;;;2.40;99.90;;;;;;5089711;28;20120;-79
2020/12/19 03:10:55;;;;;;;11.82;7.13;;;2.40;99.90;;;;;;5090717;28;20024;-77
2020/12/19 03:13:21;;;;;;;13.18;7.43;;;2.40;99.90;;;;;;5091085;28;20055;-74
2020/12/19 03:15:46;;;;;;;12.70;8.15;;;2.40;99.90;;;;;;5091117;28;20050;-79
2020/12/19 03:18:12;;;;;;;12.55;6.95;;;2.40;99.90;;;;;;5091071;28;20027;-79
2020/12/19 03:20:38;;;;;;;11.38;6.53;;;2.40;99.90;;;;;;5090643;28;20032;-78
2020/12/19 03:23:04;;;;;;;13.25;6.97;;;2.50;99.90;;;;;;5091069;28;20044;-78
2020/12/19 03:25:29;;;;;;;9.95;6.45;;;2.60;99.90;;;;;;5090493;28;20103;-78
2020/12/19 03:27:55;;;;;;;7.70;6.03;;;2.50;99.90;;;;;;5091307;28;20024;-79
2020/12/19 03:30:25;;;;;;;8.82;6.10;;;2.50;99.90;;;;;;5090415;28;20032;-73
2020/12/19 03:32:55;;;;;;;10.30;6.45;;;2.40;99.90;;;;;;5091329;28;20028;-79
2020/12/19 03:35:21;;;;;;;11.75;7.25;;;2.40;99.90;;;;;;5090862;28;20491;-73
2020/12/19 03:37:47;;;;;;;12.68;7.55;;;2.30;99.90;;;;;;5090588;28;20032;-80
2020/12/19 03:40:13;;;;;;;12.02;7.70;;;2.30;99.90;;;;;;5090734;28;20032;-79
2020/12/19 03:42:39;;;;;;;10.63;7.63;;;2.20;99.90;;;;;;5090122;28;20048;-79
2020/12/19 03:45:06;;;;;;;11.98;6.20;;;2.30;99.90;;;;;;5090832;28;20031;-78
2020/12/19 03:47:32;;;;;;;9.07;6.25;;;2.20;99.90;;;;;;5084322;28;20020;-79
2020/12/19 03:49:58;;;;;;;13.15;6.50;;;2.20;99.90;;;;;;5095163;28;20043;-79
2020/12/19 03:52:24;;;;;;;11.90;6.97;;;2.10;99.90;;;;;;5094407;28;20032;-74
2020/12/19 03:54:49;;;;;;;13.80;7.22;;;2.10;99.90;;;;;;5094904;28;20069;-79
2020/12/19 03:57:15;;;;;;;10.75;6.70;;;2.00;99.90;;;;;;5095053;28;20028;-79
2020/12/19 03:59:41;;;;;;;17.67;7.35;;;2.00;99.90;;;;;;5105184;28;20059;-80
2020/12/19 04:02:06;;;;;;;11.23;7.10;;;2.00;99.90;;;;;;5100710;28;20031;-79
2020/12/19 04:04:32;;;;;;;10.75;7.00;;;1.90;99.90;;;;;;5094612;28;20032;-78
2020/12/19 04:06:58;;;;;;;13.60;6.88;;;1.90;99.90;;;;;;5093003;28;20024;-77
2020/12/19 04:09:24;;;;;;;12.77;7.38;;;1.90;99.90;;;;;;5094227;28;20053;-73
2020/12/19 04:11:49;;;;;;;9.90;6.85;;;1.90;99.90;;;;;;5094301;28;20034;-77
2020/12/19 04:14:15;;;;;;;10.18;6.82;;;1.90;99.90;;;;;;5094021;28;20054;-78
2020/12/19 04:16:40;;;;;;;11.38;6.22;;;1.90;99.90;;;;;;5093767;28;20032;-77
2020/12/19 04:19:06;;;;;;;13.32;7.25;;;1.80;99.90;;;;;;5094145;28;20016;-74
2020/12/19 04:21:32;;;;;;;11.90;6.82;;;1.90;99.90;;;;;;5093514;28;20050;-78
2020/12/19 04:23:57;;;;;;;10.30;6.88;;;1.90;99.90;;;;;;5094267;28;20051;-78
2020/12/19 04:26:23;;;;;;;9.15;6.35;;;2.00;99.90;;;;;;5093846;28;20024;-73
2020/12/19 04:28:49;;;;;;;13.25;7.05;;;2.00;99.90;;;;;;5094092;28;20028;-77
2020/12/19 04:31:14;;;;;;;10.10;6.30;;;2.00;99.90;;;;;;5094493;28;20454;-79
2020/12/19 04:33:40;;;;;;;9.75;6.65;;;2.00;99.90;;;;;;5093191;28;20423;-78
2020/12/19 04:36:05;;;;;;;13.75;6.65;;;2.10;99.90;;;;;;5094285;28;20043;-79
2020/12/19 04:38:31;;;;;;;11.23;6.45;;;2.10;99.90;;;;;;5093210;28;20461;-79
2020/12/19 04:40:58;;;;;;;10.05;6.78;;;2.10;99.90;;;;;;5094255;28;20058;-78
2020/12/19 04:43:26;;;;;;;11.13;6.88;;;2.00;99.90;;;;;;5093786;28;20499;-73
2020/12/19 04:45:55;;;;;;;9.35;6.20;;;2.00;99.90;;;;;;5093895;28;20476;-78
2020/12/19 04:48:23;;;;;;;14.60;7.25;;;1.90;99.90;;;;;;5093239;28;20426;-78
2020/12/19 04:50:48;;;;;;;12.13;7.35;;;1.90;99.90;;;;;;5093758;28;20055;-78
2020/12/19 04:53:15;;;;;;;14.77;7.97;;;1.90;99.90;;;;;;5075591;28;20461;-77
2020/12/19 04:55:42;;;;;;;11.85;7.50;;;1.90;99.90;;;;;;5092923;28;20028;-78
2020/12/19 04:58:13;;;;;;;13.25;7.72;;;2.00;99.90;;;;;;5074418;28;20415;-78
2020/12/19 05:00:39;;;;;;;10.32;7.30;;;2.00;99.90;;;;;;5084810;28;20024;-77
2020/12/19 05:03:05;;;;;;;11.02;7.25;;;2.10;99.90;;;;;;5093360;28;20500;-79
2020/12/19 05:05:32;;;;;;;11.13;6.18;;;2.10;99.90;;;;;;5074781;28;20040;-72
2020/12/19 05:07:57;;;;;;;9.10;6.28;;;2.10;99.90;;;;;;5089764;28;20085;-79
2020/12/19 05:10:23;;;;;;;8.43;5.80;;;2.10;99.90;;;;;;5093223;28;20020;-76
2020/12/19 05:12:53;;;;;;;12.05;7.18;;;2.10;99.90;;;;;;5092962;28;20407;-79
2020/12/19 05:15:19;;;;;;;11.18;7.20;;;2.00;99.90;;;;;;5092464;28;20385;-77
2020/12/19 05:17:51;;;;;;;11.98;6.40;;;2.00;99.90;;;;;;5092643;28;20028;-78
2020/12/19 05:20:18;;;;;;;11.70;7.15;;;2.00;99.90;;;;;;5093615;28;20058;-79
2020/12/19 05:22:49;;;;;;;15.52;8.27;;;2.00;99.90;;;;;;5092427;28;20040;-79
2020/12/19 05:25:16;;;;;;;12.95;7.15;;;2.00;99.90;;;;;;5093464;28;20107;-79
2020/12/19 05:27:46;;;;;;;12.73;7.18;;;2.00;99.90;;;;;;5104214;28;20035;-77
2020/12/19 05:30:17;;;;;;;13.57;7.70;;;1.90;99.90;;;;;;5098836;28;20028;-79
2020/12/19 05:32:46;;;;;;;13.77;7.55;;;1.90;99.90;;;;;;5092672;28;20043;-78
2020/12/19 05:35:14;;;;;;;13.57;7.57;;;1.90;99.90;;;;;;5093020;28;20046;-81
2020/12/19 05:37:39;;;;;;;12.75;7.50;;;1.90;99.90;;;;;;5092210;28;20035;-83
2020/12/19 05:40:13;;;;;;;13.07;7.65;;;1.80;99.90;;;;;;5092613;28;20103;-72
2020/12/19 05:42:42;;;;;;;11.32;7.05;;;1.80;99.90;;;;;;5084538;28;20044;-78
2020/12/19 05:45:21;;;;;;;12.40;7.68;;;1.80;99.90;;;;;;5092469;28;20047;-77
2020/12/19 05:47:48;;;;;;;12.18;6.97;;;1.80;99.90;;;;;;5066724;28;20034;-77
2020/12/19 05:50:15;;;;;;;12.13;7.18;;;1.80;99.90;;;;;;5092421;28;20038;-71
2020/12/19 05:52:41;;;;;;;11.68;7.07;;;1.80;99.90;;;;;;5079259;28;20044;-73
2020/12/19 05:55:09;;;;;;;10.20;7.20;;;1.80;99.90;;;;;;5081581;28;20039;-80
2020/12/19 05:57:36;;;;;;;11.98;7.13;;;1.70;99.90;;;;;;5091164;28;20032;-78
2020/12/19 06:00:12;;;;;;;11.13;7.20;;;1.60;99.90;;;;;;5088300;28;20103;-80
2020/12/19 06:02:38;;;;;;;13.68;8.35;;;1.60;99.90;;;;;;5092112;28;20036;-82
2020/12/19 06:05:08;;;;;;;17.92;8.15;;;1.60;99.90;;;;;;5074167;28;20032;-78
2020/12/19 06:07:35;;;;;;;;;;;1.50;99.90;;;;;;5073159;28;20055;-73
2020/12/19 06:10:03;;;;;;;12.43;7.18;;;1.50;99.90;;;;;;5091595;28;20371;-82
2020/12/19 06:12:43;;;;;;;14.18;7.40;;;1.50;99.90;;;;;;5091356;28;20551;-77
2020/12/19 06:15:16;;;;;;;10.13;6.70;;;1.40;99.90;;;;;;5086347;28;20037;-82
2020/12/19 06:17:52;;;;;;;14.48;7.72;;;1.40;99.90;;;;;;5091207;28;20430;-79
2020/12/19 06:20:19;;;;;;;12.15;7.80;;;1.40;99.90;;;;;;5092474;28;20039;-78
2020/12/19 06:22:45;;;;;;;12.88;8.32;;;1.40;99.90;;;;;;5089910;28;20031;-78
2020/12/19 06:25:10;;;;;;;14.45;8.82;;;1.30;99.90;;;;;;5088767;28;20400;-74
2020/12/19 06:27:38;;;;;;;14.63;9.30;;;1.40;99.90;;;;;;5082683;28;20020;-82
2020/12/19 06:30:04;;;;;;;12.05;7.78;;;1.40;99.90;;;;;;5091216;28;20031;-81
2020/12/19 06:32:31;;;;;;;11.85;7.85;;;1.40;99.90;;;;;;5090458;28;20389;-74
2020/12/19 06:35:08;;;;;;;19.35;8.52;;;1.40;99.90;;;;;;5091259;28;20024;-75
2020/12/19 06:37:35;;;;;;;14.40;8.63;;;1.40;99.90;;;;;;5078511;28;20198;-77
2020/12/19 06:40:14;;;;;;;14.75;8.80;;;1.40;99.90;;;;;;5090739;28;20024;-77
2020/12/19 06:42:41;;;;;;;19.13;9.75;;;1.40;99.90;;;;;;5091518;28;20048;-80
2020/12/19 06:45:27;;;;;;;13.48;8.38;;;1.40;99.90;;;;;;5092555;28;20039;-81
2020/12/19 06:47:54;;;;;;;15.88;8.23;;;1.40;99.90;;;;;;5092342;28;20028;-80
2020/12/19 06:50:21;;;;;;;12.55;8.07;;;1.40;99.90;;;;;;5092471;28;20085;-83
2020/12/19 06:52:57;;;;;;;16.13;7.80;;;1.40;99.90;;;;;;5089797;28;20206;-79
2020/12/19 06:55:25;;;;;;;13.68;7.50;;;1.40;99.90;;;;;;5097182;28;20028;-77
2020/12/19 06:57:54;;;;;;;13.73;8.32;;;1.40;99.90;;;;;;5093694;28;20103;-81
2020/12/19 07:00:22;;;;;;;14.80;8.45;;;1.30;99.90;;;;;;5089907;28;20024;-82
2020/12/19 07:02:52;;;;;;;14.23;8.63;;;1.40;99.90;;;;;;5091339;28;20038;-79
2020/12/19 07:05:26;;;;;;;15.68;8.25;;;1.40;99.90;;;;;;5093136;28;20091;-76
2020/12/19 07:07:52;;;;;;;11.98;8.32;;;1.40;99.90;;;;;;5091045;28;20024;-82
2020/12/19 07:10:36;;;;;;;15.40;9.13;;;1.40;99.90;;;;;;5091154;28;20066;-74
2020/12/19 07:13:02;;;;;;;15.20;9.05;;;1.40;99.90;;;;;;5085173;28;20107;-83
2020/12/19 07:15:47;;;;;;;14.77;8.57;;;1.40;99.90;;;;;;5091389;28;20524;-82
2020/12/19 07:18:32;;;;;;;13.20;9.02;;;1.30;99.90;;;;;;5090762;28;20461;-77
2020/12/19 07:21:03;;;;;;;12.63;8.55;;;1.30;99.90;;;;;;5089921;28;20027;-76
2020/12/19 07:23:30;;;;;;;13.90;9.10;;;1.30;99.90;;;;;;5077134;28;20074;-75
2020/12/19 07:25:56;;;;;;;16.23;9.70;;;1.30;99.90;;;;;;5094128;28;20072;-72
2020/12/19 07:28:22;;;;;;;15.05;8.80;;;1.20;99.90;;;;;;5094334;28;20028;-73
2020/12/19 07:30:47;;;;;;;14.43;10.05;;;1.20;99.90;;;;;;5075994;28;20389;-67
2020/12/19 07:33:13;;;;;;;17.77;10.82;;;1.20;99.90;;;;;;5076790;28;20107;-66
2020/12/19 07:35:39;;;;;;;17.33;10.98;;;1.30;99.90;;;;;;5094049;28;20024;-67
2020/12/19 07:38:05;;;;;;;18.67;11.75;;;1.30;99.90;;;;;;5094709;28;20564;-68
2020/12/19 07:40:32;;;;;;;19.10;12.27;;;1.30;99.90;;;;;;5089554;28;20028;-70
2020/12/19 07:43:06;;;;;;;15.45;11.32;;;1.30;99.90;;;;;;5094256;28;20071;-73
2020/12/19 07:45:33;;;;;;;15.27;10.45;;;1.40;99.90;;;;;;5093784;28;20020;-68
2020/12/19 07:47:58;;;;;;;15.88;10.88;;;1.40;99.90;;;;;;5093501;28;20024;-71
2020/12/19 07:50:25;;;;;;;15.40;10.52;;;1.40;99.90;;;;;;5075947;28;20325;-64
2020/12/19 07:53:03;;;;;;;14.40;10.73;;;1.40;99.90;;;;;;5093098;28;20039;-72
2020/12/19 07:55:29;;;;;;;16.08;11.40;;;1.40;99.90;;;;;;5094548;28;20036;-75
2020/12/19 07:57:56;;;;;;;17.45;11.38;;;1.40;99.90;;;;;;5087100;28;20112;-74
2020/12/19 08:00:22;;;;;;;19.48;12.57;;;1.40;99.90;;;;;;5087467;28;20035;-76
2020/12/19 08:02:48;;;;;;;15.25;10.73;;;1.40;99.90;;;;;;5093504;28;20027;-75
2020/12/19 08:05:14;;;;;;;16.50;11.55;;;1.40;99.90;;;;;;5094562;28;20035;-73
2020/12/19 08:07:40;;;;;;;16.95;10.55;;;1.40;99.90;;;;;;5090062;28;20047;-75
2020/12/19 08:10:08;;;;;;;17.48;11.32;;;1.50;99.90;;;;;;5094268;28;20032;-73
2020/12/19 08:12:35;;;;;;;19.38;12.02;;;1.40;99.90;;;;;;5094284;28;20028;-72
2020/12/19 08:15:23;;;;;;;15.85;10.63;;;1.50;99.90;;;;;;5093952;28;20028;-75
2020/12/19 08:17:51;;;;;;;18.80;12.02;;;1.50;99.90;;;;;;5086523;28;20016;-75
2020/12/19 08:20:23;;;;;;;15.57;10.63;;;1.60;99.90;;;;;;5093738;28;20532;-74
2020/12/19 08:22:49;;;;;;;17.65;11.70;;;1.60;99.90;;;;;;5092852;28;20137;-74
2020/12/19 08:25:15;;;;;;;14.45;10.18;;;1.60;99.90;;;;;;5081874;28;20032;-75
2020/12/19 08:27:43;;;;;;;19.83;11.57;;;1.70;99.90;;;;;;5081146;28;20029;-72
2020/12/19 08:30:18;;;;;;;14.57;10.20;;;1.80;99.90;;;;;;5089819;28;20032;-77
2020/12/19 08:32:50;;;;;;;15.38;10.45;;;1.80;99.90;;;;;;5088946;28;20039;-68
2020/12/19 08:35:25;;;;;;;17.00;10.52;;;1.90;99.90;;;;;;5087885;28;20381;-74
2020/12/19 08:38:00;;;;;;;19.63;10.68;;;1.90;99.90;;;;;;5093146;28;20024;-76
2020/12/19 08:40:39;;;;;;;15.25;10.38;;;2.00;99.90;;;;;;5093623;28;20024;-75
2020/12/19 08:43:05;;;;;;;14.50;10.15;;;2.10;99.90;;;;;;5092904;28;20346;-73
2020/12/19 08:45:36;;;;;;;18.17;10.45;;;2.20;99.90;;;;;;5093696;28;20376;-75
2020/12/19 08:48:05;;;;;;;15.02;9.95;;;2.20;99.90;;;;;;5092643;28;20401;-74
2020/12/19 08:50:36;;;;;;;20.42;10.23;;;2.30;99.90;;;;;;5093367;28;20055;-73
2020/12/19 08:53:05;;;;;;;14.80;9.73;;;2.30;99.90;;;;;;5092000;28;20125;-75
2020/12/19 08:55:31;;;;;;;15.48;10.13;;;2.40;99.90;;;;;;5092552;28;20028;-73
2020/12/19 08:57:56;;;;;;;15.93;10.38;;;2.50;99.90;;;;;;5082066;28;20020;-72
2020/12/19 09:00:22;;;;;;;18.45;12.07;;;2.50;99.90;;;;;;5078864;28;20427;-74
2020/12/19 09:02:50;;;;;;;16.55;10.68;;;2.60;99.90;;;;;;5083356;28;20039;-74
2020/12/19 09:05:42;;;;;;;19.73;11.52;;;2.60;99.90;;;;;;5086026;28;20031;-72
2020/12/19 09:08:12;;;;;;;15.32;11.23;;;2.70;99.90;;;;;;5083326;28;20494;-73
2020/12/19 09:10:41;;;;;;;17.90;11.00;;;2.80;99.90;;;;;;5083671;28;20370;-72
2020/12/19 09:13:06;;;;;;;19.58;12.75;;;2.90;99.90;;;;;;5085070;28;20107;-73
2020/12/19 09:15:32;;;;;;;18.13;11.07;;;2.90;99.90;;;;;;5082078;28;20108;-73
2020/12/19 09:17:58;;;;;;;19.65;11.57;;;3.00;99.90;;;;;;5083882;28;20511;-76
2020/12/19 09:20:25;;;;;;;19.40;11.65;;;3.10;99.90;;;;;;5091659;28;20133;-76
2020/12/19 09:22:51;;;;;;;16.15;11.27;;;3.20;99.90;;;;;;5092208;28;20036;-77
2020/12/19 09:25:17;;;;;;;16.02;10.75;;;3.30;99.90;;;;;;5092785;28;20027;-75
2020/12/19 09:27:43;;;;;;;15.02;10.90;;;3.40;99.90;;;;;;5092041;28;20032;-75
2020/12/19 09:30:09;;;;;;;16.83;11.13;;;3.40;99.90;;;;;;5091964;28;20046;-85
2020/12/19 09:32:36;;;;;;;16.20;11.48;;;3.50;99.90;;;;;;5092574;28;20473;-74
2020/12/19 09:35:02;;;;;;;24.45;11.95;;;3.60;99.90;;;;;;5079118;28;20025;-75
2020/12/19 09:37:28;;;;;;;15.85;10.85;;;3.60;99.90;;;;;;5082246;28;20030;-75
2020/12/19 09:39:54;;;;;;;19.52;12.73;;;3.70;99.90;;;;;;5087359;28;20097;-75
2020/12/19 09:42:20;;;;;;;22.50;14.30;;;3.80;99.90;;;;;;5073614;28;20136;-76
2020/12/19 09:44:47;;;;;;;20.95;12.82;;;3.90;99.90;;;;;;5091036;28;20366;-77
2020/12/19 09:47:13;;;;;;;19.40;12.82;;;4.00;99.90;;;;;;5091780;28;20488;-75
2020/12/19 09:49:39;;;;;;;21.60;12.60;;;4.10;99.90;;;;;;5091103;28;20380;-75
2020/12/19 09:52:06;;;;;;;17.33;13.40;;;4.20;99.90;;;;;;5091741;28;20503;-78
2020/12/19 09:54:33;;;;;;;18.27;12.52;;;4.30;99.90;;;;;;5091477;28;20152;-82
2020/12/19 09:56:59;;;;;;;18.63;13.30;;;4.40;99.90;;;;;;5090589;28;20032;-83
2020/12/19 09:59:25;;;;;;;20.42;12.95;;;4.50;99.90;;;;;;5091846;28;20047;-88
2020/12/19 10:01:51;;;;;;;19.85;12.40;;;4.50;99.90;;;;;;5091911;28;20040;-84
2020/12/19 10:04:17;;;;;;;18.88;12.55;;;4.60;99.90;;;;;;5091345;28;20036;-89
2020/12/19 10:06:44;;;;;;;20.17;13.23;;;4.60;99.90;;;;;;5080864;28;20025;-82
2020/12/19 10:09:10;;;;;;;17.48;12.07;;;4.70;99.90;;;;;;5088404;28;20040;-84
2020/12/19 10:11:36;;;;;;;17.45;13.07;;;4.70;99.90;;;;;;5082363;28;20034;-80
2020/12/19 10:14:02;;;;;;;29.10;17.27;;;4.90;99.90;;;;;;5068182;28;20607;-77
2020/12/19 10:16:28;;;;;;;38.35;20.42;;;5.00;99.90;;;;;;5091778;28;20032;-78
2020/12/19 10:18:55;;;;;;;35.75;19.70;;;5.10;99.90;;;;;;5091749;28;20015;-78
2020/12/19 10:21:21;;;;;;;38.63;19.88;;;5.30;99.90;;;;;;5092044;28;20050;-78
2020/12/19 10:23:47;;;;;;;33.90;17.00;;;5.50;99.90;;;;;;5091139;28;20473;-76
2020/12/19 10:26:13;;;;;;;34.88;19.25;;;5.60;99.90;;;;;;5092512;28;20059;-78
2020/12/19 10:28:39;;;;;;;26.90;16.05;;;5.70;99.90;;;;;;5084660;28;20426;-78
2020/12/19 10:31:05;;;;;;;18.48;13.25;;;5.80;99.90;;;;;;5071730;28;20027;-83
2020/12/19 10:33:31;;;;;;;17.13;11.40;;;5.90;99.90;;;;;;5073650;28;20469;-80
2020/12/19 10:35:57;;;;;;;13.50;10.93;;;5.90;99.90;;;;;;5091084;28;20027;-84
2020/12/19 10:38:23;;;;;;;15.57;10.35;;;6.00;99.90;;;;;;5091590;28;20099;-83
2020/12/19 10:40:48;;;;;;;14.50;10.10;;;6.10;99.90;;;;;;5072805;28;20107;-76
2020/12/19 10:43:14;;;;;;;16.40;10.13;;;6.10;99.90;;;;;;5090940;28;20481;-78
2020/12/19 10:45:46;;;;;;;14.23;10.07;;;6.20;99.90;;;;;;5090817;28;20481;-76
2020/12/19 10:48:12;;;;;;;14.63;10.05;;;6.40;98.90;;;;;;5072913;28;20373;-79
2020/12/19 10:50:39;;;;;;;13.07;9.90;;;6.40;99.50;;;;;;5073202;28;20032;-81
2020/12/19 10:53:05;;;;;;;14.90;9.75;;;6.50;98.00;;;;;;5082110;28;20149;-80
2020/12/19 10:55:33;;;;;;;13.70;9.30;;;6.50;98.20;;;;;;5084199;28;20030;-76
2020/12/19 10:57:59;;;;;;;13.65;8.43;;;6.60;98.20;;;;;;5088734;28;20020;-76
2020/12/19 11:00:25;;;;;;;12.25;9.05;;;6.80;97.30;;;;;;5070578;28;20028;-79
2020/12/19 11:02:52;;;;;;;14.13;10.15;;;7.00;94.30;;;;;;5092865;28;20036;-79
2020/12/19 11:05:18;;;;;;;15.77;10.07;;;7.10;93.50;;;;;;5090795;28;20433;-75
2020/12/19 11:07:48;;;;;;;15.52;10.38;;;7.20;92.60;;;;;;5072758;28;20115;-74
2020/12/19 11:10:14;;;;;;;16.13;10.82;;;7.20;93.40;;;;;;5091217;28;20027;-81
2020/12/19 11:12:41;;;;;;;14.45;9.90;;;7.30;91.10;;;;;;5091411;28;20473;-74
2020/12/19 11:15:07;;;;;;;15.75;9.55;;;7.30;91.20;;;;;;5090511;28;20538;-78
2020/12/19 11:17:32;;;;;;;18.58;10.18;;;7.40;91.30;;;;;;5091619;28;20099;-77
2020/12/19 11:19:58;;;;;;;13.80;10.15;;;7.50;90.60;;;;;;5093850;28;20067;-77
2020/12/19 11:22:24;;;;;;;13.82;10.15;;;7.50;91.20;;;;;;5090689;28;20081;-78
2020/12/19 11:24:49;;;;;;;12.93;9.48;;;7.60;89.80;;;;;;5090671;28;20074;-79
2020/12/19 11:27:15;;;;;;;10.88;8.60;;;7.70;88.20;;;;;;5091237;28;20107;-79
2020/12/19 11:29:41;;;;;;;13.43;8.80;;;7.80;86.30;;;;;;5078667;28;20036;-81
2020/12/19 11:32:07;;;;;;;13.45;9.50;;;7.90;87.60;;;;;;5096981;28;20887;-80
2020/12/19 11:34:34;;;;;;;12.50;9.40;;;7.90;88.30;;;;;;5091623;28;20028;-80
2020/12/19 11:37:00;;;;;;;12.80;9.63;;;8.00;89.30;;;;;;5090437;28;20024;-84
2020/12/19 11:39:25;;;;;;;15.02;9.40;;;8.10;88.00;;;;;;5073229;28;20081;-81
2020/12/19 11:41:52;;;;;;;12.18;8.88;;;8.20;85.40;;;;;;5089780;28;20048;-78
2020/12/19 11:44:18;;;;;;;16.10;8.82;;;8.30;84.80;;;;;;5091155;28;20024;-84
2020/12/19 11:46:50;;;;;;;14.10;10.15;;;8.30;85.70;;;;;;5090782;28;20042;-74
2020/12/19 11:49:16;;;;;;;12.68;9.27;;;8.50;85.30;;;;;;5072565;28;20020;-76
2020/12/19 11:51:41;;;;;;;13.80;8.85;;;8.60;84.30;;;;;;5090866;28;20578;-76
2020/12/19 11:54:07;;;;;;;22.67;10.57;;;8.60;84.40;;;;;;5089551;28;20107;-74
2020/12/19 11:56:37;;;;;;;17.65;10.00;;;8.80;82.50;;;;;;5072806;28;20044;-79
2020/12/19 11:59:03;;;;;;;;;;;8.90;81.80;;;;;;5050366;28;20373;-80
2020/12/19 12:01:29;;;;;;;13.25;8.85;;;9.00;82.10;;;;;;5089182;28;19912;-77
2020/12/19 12:03:56;;;;;;;13.85;9.52;;;9.20;79.70;;;;;;5089651;28;20036;-78
2020/12/19 12:06:28;;;;;;;15.80;10.57;;;9.40;80.60;;;;;;5087779;28;20024;-75
2020/12/19 12:08:54;;;;;;;20.70;9.90;;;9.60;77.30;;;;;;5072170;28;20484;-74
2020/12/19 12:11:28;;;;;;;12.23;9.63;;;9.80;76.60;;;;;;5093922;28;20032;-75
2020/12/19 12:13:55;;;;;;;14.20;9.23;;;9.90;77.40;;;;;;5093587;28;20028;-76
2020/12/19 12:16:21;;;;;;;12.98;8.43;;;10.10;76.30;;;;;;5094217;28;20081;-75
2020/12/19 12:18:49;;;;;;;12.02;8.55;;;10.20;74.00;;;;;;5075713;28;20461;-75
2020/12/19 12:21:14;;;;;;;12.15;8.98;;;10.20;73.90;;;;;;5094618;28;20028;-77
2020/12/19 12:23:42;;;;;;;11.10;8.07;;;10.30;73.00;;;;;;5093543;28;20051;-75
2020/12/19 12:26:08;;;;;;;15.77;9.23;;;10.30;72.70;;;;;;5093089;28;20584;-76
2020/12/19 12:28:34;;;;;;;16.20;9.60;;;10.20;73.90;;;;;;5086876;28;20033;-74
2020/12/19 12:30:59;;;;;;;15.90;9.82;;;10.20;74.70;;;;;;5070933;28;20464;-74
2020/12/19 12:33:25;;;;;;;15.00;10.55;;;10.10;75.30;;;;;;5093581;28;20035;-73
2020/12/19 12:35:51;;;;;;;13.50;9.45;;;10.10;75.70;;;;;;5092956;28;20096;-77
2020/12/19 12:38:16;;;;;;;13.75;9.25;;;10.10;76.10;;;;;;5093353;28;20028;-77
2020/12/19 12:40:42;;;;;;;13.05;9.32;;;10.00;75.70;;;;;;5093878;28;20356;-83
2020/12/19 12:43:08;;;;;;;13.52;8.95;;;10.00;76.50;;;;;;5074181;28;20040;-78
2020/12/19 12:45:34;;;;;;;16.90;9.45;;;10.00;76.90;;;;;;5094305;28;20028;-76
2020/12/19 12:47:59;;;;;;;15.80;10.02;;;10.00;77.40;;;;;;5093199;28;20476;-76